map of YMS home
Great Circle Mapper logo
YMS - Airport
Location
City:  Yurimaguas, Loreto, Perú
Name:Moisés Benzaquén Rengifo Airport
ICAO / IATA:SPMS / YMS

Details
Type:Airport (Aerodrome, Airfield)
Use:Public/Civil
Latitude:5°53'37"S (-5.893610)
Longitude:76°07'05"W (-76.118055)
Elevation:587 ft (179 m)
Variation:3.68°W (WMM2015 magnetic declination)
-0.16° annual change
Runways:1
Longest:5906 × 98 ft (1800 × 30 m), paved

Time
Time Zone:UTC-5
Local Time:

Weather
METAR:SPMS 032300Z 28003KT 9999 VCSH SCT020 SCT100 28/22 Q1012 RMK BIRD HAZARD RWY 09/27 PP000
TAF:SPMS 031700Z 0318/0418 VRB02KT 9999 SCT020 TX35/0320Z TN22/0410Z TEMP TAF SPIM 031640Z 0318/0418 20008KT 9999 OVC020 TX22/0319Z TN18/0411Z
BECMG 0322/0400 SCT012 OVC017
BECMG 0402/0403 8000 PROB30 0410/0413 VRB02KT 5000 BR OVC010
FM041700 16008KT 9999 SCT15 OVC017

Related Locations
Nearby:
Farthest:RDN: 12388 mi / 19937 km
Redang, Pulau Redang, MY

Find:

   beyond  
but within

Other Information
Maps:
NOTAMs:
Links:
Sources:

  
flag of Perú
flag of Loreto
  

Sectional Chart

Flight Planning
at skyvector.com

Satellite Image

Google Maps Satellite view

 

Copyright © 2004-2015 Karl L. Swartz. All rights reserved.
The Great Circle Mapper name and logo are trademarks of the Great Circle Mapper.
All other trademarks mentioned herein belong to their respective owners.
Please see credits for attibutions and further copyright information.

  Follow gcmap on Facebook Follow gcmap on Twitter Follow gcmap on Google+

hCard Microformat

Geo Microformat